Time;durP1;ratioP1;P1;durP2;ratioP2;P2;SDS_P1;SDS_P2;PMS_P1;PMS_P2;Temp;Humidity;BMP_temperature;BMP_pressure;BME280_temperature;BME280_humidity;BME280_pressure;Samples;Min_cycle;Max_cycle;Signal;HPM_P1;HPM_P2
2023/08/09 00:00:20;;;;;;;7.35;2.20;;;11.50;99.90;;;;;;5038716;28;20940;-83
2023/08/09 00:02:48;;;;;;;6.82;2.08;;;11.50;99.90;;;;;;5036281;28;20239;-82
2023/08/09 00:05:15;;;;;;;8.32;2.40;;;11.50;99.90;;;;;;5040907;28;20186;-83
2023/08/09 00:07:42;;;;;;;4.72;2.25;;;11.50;99.90;;;;;;5041344;28;20201;-83
2023/08/09 00:10:10;;;;;;;9.65;2.70;;;11.40;99.90;;;;;;5037205;28;20190;-82
2023/08/09 00:12:38;;;;;;;7.25;2.60;;;11.40;99.90;;;;;;5007745;28;20214;-83
2023/08/09 00:15:06;;;;;;;8.57;2.20;;;11.40;99.90;;;;;;5025416;28;20691;-83
2023/08/09 00:17:36;;;;;;;7.25;2.65;;;11.40;99.90;;;;;;5037939;28;20226;-83
2023/08/09 00:20:05;;;;;;;4.63;1.92;;;11.30;99.90;;;;;;5037961;28;20189;-83
2023/08/09 00:22:32;;;;;;;4.18;2.17;;;11.40;99.90;;;;;;5021465;28;20337;-83
2023/08/09 00:25:00;;;;;;;4.47;2.10;;;11.10;99.90;;;;;;5038452;28;20652;-83
2023/08/09 00:27:28;;;;;;;7.43;2.13;;;11.30;99.90;;;;;;5021151;28;20591;-83
2023/08/09 00:29:56;;;;;;;6.60;2.25;;;11.50;99.90;;;;;;5037262;28;20194;-83
2023/08/09 00:32:23;;;;;;;5.82;2.28;;;11.50;99.90;;;;;;5036809;28;20227;-83
2023/08/09 00:34:51;;;;;;;6.30;2.58;;;11.30;99.90;;;;;;5036648;28;20288;-83
2023/08/09 00:37:19;;;;;;;7.22;2.78;;;11.30;99.90;;;;;;5023401;28;20192;-83
2023/08/09 00:39:46;;;;;;;5.45;2.63;;;11.40;99.90;;;;;;5039174;28;20188;-83
2023/08/09 00:42:14;;;;;;;5.20;2.15;;;11.30;99.90;;;;;;5028017;28;20297;-83
2023/08/09 00:44:42;;;;;;;6.00;1.85;;;11.30;99.90;;;;;;5036667;28;20258;-82
2023/08/09 00:47:09;;;;;;;6.68;2.88;;;11.40;99.90;;;;;;5037211;28;20246;-83
2023/08/09 00:49:37;;;;;;;8.60;3.13;;;11.30;99.90;;;;;;5032237;28;20186;-82
2023/08/09 00:52:05;;;;;;;8.32;2.95;;;11.40;99.90;;;;;;5036141;28;20635;-83
2023/08/09 00:54:33;;;;;;;7.15;2.65;;;11.10;99.90;;;;;;5037723;28;20224;-83
2023/08/09 00:57:02;;;;;;;5.00;2.03;;;11.10;99.90;;;;;;5037577;28;20193;-82
2023/08/09 00:59:30;;;;;;;7.18;2.90;;;11.10;99.90;;;;;;5036231;28;20567;-82
2023/08/09 01:01:57;;;;;;;13.05;3.17;;;11.00;99.90;;;;;;5027220;28;20779;-82
2023/08/09 01:04:26;;;;;;;4.50;2.38;;;11.00;99.90;;;;;;5019520;28;20247;-82
2023/08/09 01:06:56;;;;;;;8.50;2.75;;;10.90;99.90;;;;;;5039878;28;20288;-83
2023/08/09 01:09:35;;;;;;;12.52;2.55;;;11.00;99.90;;;;;;5011678;28;20194;-83
2023/08/09 01:12:12;;;;;;;3.47;1.90;;;11.20;99.90;;;;;;5017344;28;20303;-83
2023/08/09 01:14:43;;;;;;;6.70;2.33;;;11.40;99.90;;;;;;5016224;28;20240;-82
2023/08/09 01:17:15;;;;;;;8.82;2.40;;;11.50;99.90;;;;;;5036815;28;20190;-82
2023/08/09 01:19:49;;;;;;;9.15;2.47;;;11.10;99.90;;;;;;5034387;28;20278;-82
2023/08/09 01:22:22;;;;;;;9.18;2.50;;;11.00;99.90;;;;;;5034561;28;20198;-83
2023/08/09 01:24:50;;;;;;;8.50;2.72;;;10.90;99.90;;;;;;5031598;28;20285;-82
2023/08/09 01:27:18;;;;;;;4.43;2.47;;;10.90;99.90;;;;;;5029389;28;20660;-81
2023/08/09 01:29:47;;;;;;;9.93;2.83;;;10.80;99.90;;;;;;5046673;28;20193;-81
2023/08/09 01:32:14;;;;;;;13.90;2.67;;;10.80;99.90;;;;;;5018242;28;20186;-82
2023/08/09 01:34:42;;;;;;;6.70;2.53;;;10.80;99.90;;;;;;5032546;28;20205;-82
2023/08/09 01:37:27;;;;;;;6.90;2.83;;;10.60;99.90;;;;;;5019899;28;20193;-82
2023/08/09 01:39:58;;;;;;;9.65;2.65;;;10.70;99.90;;;;;;5035771;28;20267;-82
2023/08/09 01:42:26;;;;;;;7.63;2.65;;;10.70;99.90;;;;;;5034598;28;20189;-82
2023/08/09 01:44:54;;;;;;;4.00;2.33;;;10.70;99.90;;;;;;5043525;28;20586;-82
2023/08/09 01:47:22;;;;;;;5.55;2.22;;;10.60;99.90;;;;;;5034424;28;20193;-82
2023/08/09 01:49:51;;;;;;;6.53;2.53;;;10.60;99.90;;;;;;5034326;28;20204;-82
2023/08/09 01:52:19;;;;;;;8.43;2.78;;;10.70;99.90;;;;;;5043975;28;20208;-83
2023/08/09 01:54:46;;;;;;;4.70;2.40;;;10.60;99.90;;;;;;5038060;28;20561;-83
2023/08/09 01:57:14;;;;;;;11.07;2.60;;;10.60;99.90;;;;;;5037266;28;20201;-84
2023/08/09 01:59:42;;;;;;;7.40;2.60;;;10.60;99.90;;;;;;5038044;28;20254;-84
2023/08/09 02:02:11;;;;;;;9.65;3.10;;;10.40;99.90;;;;;;5036496;28;20193;-83
2023/08/09 02:04:39;;;;;;;5.28;2.63;;;10.40;99.90;;;;;;5038250;28;20712;-83
2023/08/09 02:07:07;;;;;;;6.05;2.60;;;10.40;99.90;;;;;;5023567;28;20247;-83
2023/08/09 02:09:35;;;;;;;6.75;2.58;;;10.30;99.90;;;;;;5022451;28;20236;-83
2023/08/09 02:12:02;;;;;;;9.00;2.63;;;10.40;99.90;;;;;;5025130;28;20201;-83
2023/08/09 02:14:30;;;;;;;6.05;2.80;;;10.40;99.90;;;;;;5030790;28;20220;-83
2023/08/09 02:16:59;;;;;;;7.13;2.33;;;10.40;99.90;;;;;;5038610;28;20734;-83
2023/08/09 02:19:27;;;;;;;6.75;2.78;;;10.50;99.90;;;;;;5032029;28;20676;-83
2023/08/09 02:21:54;;;;;;;6.68;2.58;;;10.50;99.90;;;;;;5032079;28;20193;-84
2023/08/09 02:24:23;;;;;;;5.15;2.10;;;10.50;99.90;;;;;;5034747;28;20241;-83
2023/08/09 02:26:51;;;;;;;7.63;2.92;;;10.60;99.90;;;;;;5031746;28;20185;-84
2023/08/09 02:29:20;;;;;;;6.07;2.70;;;10.40;99.90;;;;;;5034462;28;20182;-83
2023/08/09 02:31:47;;;;;;;7.10;2.85;;;10.30;99.90;;;;;;5035009;28;20202;-83
2023/08/09 02:34:19;;;;;;;4.18;2.45;;;10.20;99.90;;;;;;5032227;28;20368;-84
2023/08/09 02:36:46;;;;;;;7.50;2.45;;;10.20;99.90;;;;;;5039389;28;20181;-84
2023/08/09 02:39:14;;;;;;;6.45;2.38;;;10.30;99.90;;;;;;5037236;28;20198;-82
2023/08/09 02:41:42;;;;;;;6.18;2.42;;;10.30;99.90;;;;;;5022518;28;20201;-84
2023/08/09 02:44:09;;;;;;;4.20;2.28;;;10.20;99.90;;;;;;5044682;28;20193;-83
2023/08/09 02:46:38;;;;;;;6.10;2.45;;;10.10;99.90;;;;;;5033902;28;20205;-83
2023/08/09 02:49:07;;;;;;;10.82;3.00;;;10.10;99.90;;;;;;5033270;28;20714;-83
2023/08/09 02:51:35;;;;;;;6.95;2.70;;;10.20;99.90;;;;;;5036024;28;20197;-83
2023/08/09 02:54:04;;;;;;;8.98;2.65;;;10.10;99.90;;;;;;5031714;28;20198;-83
2023/08/09 02:56:33;;;;;;;5.50;2.63;;;10.30;99.90;;;;;;5012652;28;20198;-82
2023/08/09 02:59:01;;;;;;;8.18;2.92;;;10.10;99.90;;;;;;5039201;28;20238;-82
2023/08/09 03:01:33;;;;;;;7.70;2.97;;;10.10;99.90;;;;;;5056290;28;20703;-82
2023/08/09 03:04:01;;;;;;;8.73;2.67;;;10.00;99.90;;;;;;5039174;28;20189;-83
2023/08/09 03:06:29;;;;;;;6.75;2.20;;;10.00;99.90;;;;;;5029106;28;20272;-82
2023/08/09 03:08:56;;;;;;;8.23;2.40;;;10.00;99.90;;;;;;5033699;28;20250;-83
2023/08/09 03:11:25;;;;;;;10.45;3.25;;;10.40;99.90;;;;;;5046798;28;20212;-82
2023/08/09 03:13:53;;;;;;;10.70;2.90;;;10.40;99.90;;;;;;5035865;28;20213;-82
2023/08/09 03:16:21;;;;;;;5.25;2.63;;;10.40;99.90;;;;;;5041588;28;20678;-83
2023/08/09 03:18:49;;;;;;;9.07;2.80;;;10.40;99.90;;;;;;5033584;28;20191;-82
2023/08/09 03:21:17;;;;;;;8.77;3.03;;;10.50;99.90;;;;;;5027988;28;20209;-83
2023/08/09 03:23:46;;;;;;;5.97;2.83;;;10.60;99.90;;;;;;5028210;28;20734;-83
2023/08/09 03:26:13;;;;;;;6.25;3.10;;;10.70;99.90;;;;;;5019546;28;20197;-82
2023/08/09 03:28:42;;;;;;;11.02;3.20;;;10.60;99.90;;;;;;5036434;28;20225;-83
2023/08/09 03:31:12;;;;;;;8.88;3.13;;;10.70;99.90;;;;;;5041663;28;20681;-83
2023/08/09 03:33:40;;;;;;;9.23;2.63;;;10.70;99.90;;;;;;5037051;28;20196;-83
2023/08/09 03:36:08;;;;;;;10.85;3.08;;;10.70;99.90;;;;;;5038269;28;20215;-83
2023/08/09 03:38:35;;;;;;;7.57;3.33;;;10.80;99.90;;;;;;5034283;28;20254;-83
2023/08/09 03:41:02;;;;;;;9.38;3.42;;;10.80;99.90;;;;;;5039100;28;20200;-82
2023/08/09 03:43:31;;;;;;;6.07;2.63;;;10.90;99.90;;;;;;5039664;28;20605;-82
2023/08/09 03:45:58;;;;;;;8.63;3.33;;;11.00;99.90;;;;;;5038936;28;20242;-83
2023/08/09 03:48:27;;;;;;;9.77;3.00;;;10.80;99.90;;;;;;5036445;28;20232;-83
2023/08/09 03:50:54;;;;;;;8.00;3.28;;;10.80;99.90;;;;;;5039725;28;20186;-82
2023/08/09 03:53:22;;;;;;;7.03;2.67;;;10.90;99.90;;;;;;5036563;28;20276;-82
2023/08/09 03:55:49;;;;;;;12.07;3.03;;;11.00;99.90;;;;;;5038503;28;20281;-83
2023/08/09 03:58:17;;;;;;;8.82;2.90;;;10.90;99.90;;;;;;5035586;28;20190;-83
2023/08/09 04:00:44;;;;;;;5.10;2.70;;;10.90;99.90;;;;;;5041092;28;20186;-83
2023/08/09 04:03:12;;;;;;;7.18;3.45;;;10.90;99.90;;;;;;5038027;28;20194;-83
2023/08/09 04:05:39;;;;;;;9.43;3.50;;;11.00;99.90;;;;;;5036653;28;20186;-83
2023/08/09 04:08:07;;;;;;;14.13;2.90;;;11.00;99.90;;;;;;5041228;28;20197;-83
2023/08/09 04:10:35;;;;;;;7.47;4.03;;;11.00;99.90;;;;;;5037265;28;20277;-82
2023/08/09 04:13:03;;;;;;;12.32;3.55;;;11.10;99.90;;;;;;5021916;28;20263;-83
2023/08/09 04:15:31;;;;;;;7.70;3.45;;;11.10;99.90;;;;;;5021062;28;20302;-83
2023/08/09 04:17:58;;;;;;;12.80;3.92;;;11.10;99.90;;;;;;5030924;28;20186;-83
2023/08/09 04:20:26;;;;;;;6.65;3.38;;;11.10;99.90;;;;;;5030376;28;20186;-83
2023/08/09 04:23:00;;;;;;;6.43;3.78;;;11.10;99.90;;;;;;5037834;28;20316;-83
2023/08/09 04:25:27;;;;;;;10.27;4.03;;;11.10;99.90;;;;;;5035510;28;20190;-83
2023/08/09 04:27:56;;;;;;;8.98;3.63;;;11.10;99.90;;;;;;5039648;28;20234;-83
2023/08/09 04:30:24;;;;;;;8.13;3.60;;;11.10;99.90;;;;;;5036830;28;20194;-82
2023/08/09 04:32:55;;;;;;;8.82;3.45;;;11.00;99.90;;;;;;5037593;28;20196;-82
2023/08/09 04:35:23;;;;;;;6.45;3.33;;;11.10;99.90;;;;;;5033992;28;20213;-83
2023/08/09 04:37:51;;;;;;;6.43;3.42;;;11.20;99.90;;;;;;5036477;28;20555;-83
2023/08/09 04:40:18;;;;;;;10.25;3.58;;;11.20;99.90;;;;;;5039174;28;20186;-82
2023/08/09 04:42:47;;;;;;;7.38;3.97;;;11.20;99.90;;;;;;5013010;28;20277;-84
2023/08/09 04:45:15;;;;;;;9.65;3.45;;;11.30;99.90;;;;;;5043565;28;20207;-83
2023/08/09 04:47:43;;;;;;;7.38;3.50;;;11.30;99.90;;;;;;5037192;28;20213;-83
2023/08/09 04:50:12;;;;;;;8.25;4.30;;;11.20;99.90;;;;;;5036439;28;20213;-83
2023/08/09 04:52:41;;;;;;;12.00;3.80;;;11.20;99.90;;;;;;5039879;28;20196;-82
2023/08/09 04:55:11;;;;;;;5.78;3.22;;;11.30;99.90;;;;;;5041011;28;20208;-83
2023/08/09 04:57:38;;;;;;;10.45;3.20;;;11.30;99.90;;;;;;5041424;28;20257;-83
2023/08/09 05:00:08;;;;;;;6.18;3.65;;;11.30;99.90;;;;;;5039844;28;20185;-82
2023/08/09 05:02:36;;;;;;;7.25;3.28;;;11.40;99.90;;;;;;5036081;28;20192;-83
2023/08/09 05:05:07;;;;;;;8.38;3.58;;;11.40;99.90;;;;;;5032880;28;20206;-83
2023/08/09 05:07:36;;;;;;;9.05;3.10;;;11.40;99.90;;;;;;5034287;28;20192;-84
2023/08/09 05:10:04;;;;;;;6.07;2.97;;;11.40;99.90;;;;;;5020626;28;20214;-83
2023/08/09 05:12:32;;;;;;;7.32;3.20;;;11.50;99.90;;;;;;5035311;27;20194;-83
2023/08/09 05:15:00;;;;;;;10.40;3.60;;;11.50;99.90;;;;;;5031050;28;20297;-83
2023/08/09 05:17:28;;;;;;;8.57;3.40;;;11.60;99.90;;;;;;5035392;28;20567;-83
2023/08/09 05:19:55;;;;;;;8.00;2.92;;;11.60;99.90;;;;;;5039073;28;20200;-83
2023/08/09 05:22:23;;;;;;;8.55;2.85;;;11.70;99.90;;;;;;5036074;28;20213;-83
2023/08/09 05:24:51;;;;;;;7.47;3.33;;;11.70;99.90;;;;;;5026046;28;21006;-84
2023/08/09 05:27:18;;;;;;;11.75;3.05;;;11.70;99.90;;;;;;5031539;28;20193;-83
2023/08/09 05:29:46;;;;;;;6.57;3.20;;;11.70;99.90;;;;;;5024350;28;20193;-83
2023/08/09 05:32:13;;;;;;;7.43;3.47;;;11.70;99.90;;;;;;5027787;28;20201;-84
2023/08/09 05:34:41;;;;;;;8.77;3.50;;;11.70;99.90;;;;;;5034577;28;20185;-83
2023/08/09 05:37:09;;;;;;;7.43;2.80;;;11.80;99.90;;;;;;5034403;28;20239;-83
2023/08/09 05:39:36;;;;;;;7.50;3.22;;;11.80;99.90;;;;;;5029131;28;20264;-83
2023/08/09 05:42:14;;;;;;;8.57;2.95;;;11.90;99.90;;;;;;5026024;28;20182;-82
2023/08/09 05:44:42;;;;;;;6.20;3.15;;;11.90;99.90;;;;;;5029072;28;20186;-82
2023/08/09 05:47:09;;;;;;;5.45;2.50;;;12.00;99.90;;;;;;5024682;28;20656;-83
2023/08/09 05:49:39;;;;;;;6.50;3.33;;;12.00;99.90;;;;;;5026728;28;20677;-82
2023/08/09 05:52:06;;;;;;;7.97;2.97;;;12.10;99.90;;;;;;5025903;28;20183;-82
2023/08/09 05:54:34;;;;;;;6.47;3.30;;;12.20;99.90;;;;;;5020799;28;20194;-83
2023/08/09 05:57:01;;;;;;;11.40;3.40;;;12.20;99.90;;;;;;5026273;28;20206;-83
2023/08/09 05:59:29;;;;;;;7.32;3.75;;;12.20;99.90;;;;;;5038036;28;20689;-83
2023/08/09 06:01:57;;;;;;;7.97;3.47;;;12.30;99.90;;;;;;5031808;28;20239;-82
2023/08/09 06:04:26;;;;;;;6.45;3.35;;;12.40;99.90;;;;;;5029529;28;20787;-84
2023/08/09 06:06:54;;;;;;;7.57;3.25;;;12.40;99.90;;;;;;5035070;28;20206;-83
2023/08/09 06:09:22;;;;;;;11.18;3.95;;;12.50;99.90;;;;;;5036253;28;20208;-81
2023/08/09 06:12:07;;;;;;;4.68;2.88;;;12.50;99.90;;;;;;5033192;28;20640;-83
2023/08/09 06:14:34;;;;;;;8.73;3.03;;;12.50;99.90;;;;;;5019304;28;20205;-82
2023/08/09 06:17:05;;;;;;;6.82;2.65;;;12.60;99.90;;;;;;5024864;28;20580;-82
2023/08/09 06:19:43;;;;;;;7.78;2.78;;;12.60;99.90;;;;;;5037183;28;20699;-82
2023/08/09 06:22:11;;;;;;;6.60;3.22;;;12.60;99.90;;;;;;5032676;28;20189;-82
2023/08/09 06:24:38;;;;;;;8.85;3.40;;;12.70;99.90;;;;;;5029818;28;20529;-84
2023/08/09 06:27:06;;;;;;;9.98;3.08;;;12.70;99.90;;;;;;5037519;28;20208;-82
2023/08/09 06:29:34;;;;;;;12.07;3.45;;;12.70;99.90;;;;;;5031855;28;20204;-84
2023/08/09 06:32:02;;;;;;;6.90;3.00;;;12.90;99.90;;;;;;5036456;28;20723;-82
2023/08/09 06:34:30;;;;;;;6.13;2.80;;;13.00;99.90;;;;;;5034472;28;20669;-83
2023/08/09 06:36:57;;;;;;;4.70;2.63;;;13.10;99.90;;;;;;5014914;28;20211;-84
2023/08/09 06:39:25;;;;;;;8.82;2.92;;;13.30;99.90;;;;;;5037779;28;20192;-83
2023/08/09 06:41:52;;;;;;;7.78;3.10;;;13.30;99.90;;;;;;5008604;28;20186;-83
2023/08/09 06:44:21;;;;;;;7.07;3.20;;;13.30;99.90;;;;;;5025445;28;20193;-82
2023/08/09 06:46:48;;;;;;;11.27;3.20;;;13.40;99.90;;;;;;5026014;28;20232;-83
2023/08/09 06:49:16;;;;;;;5.80;2.85;;;13.40;99.90;;;;;;5026593;28;20200;-83
2023/08/09 06:51:44;;;;;;;7.85;3.08;;;13.60;99.90;;;;;;5038720;28;20301;-81
2023/08/09 06:54:11;;;;;;;11.02;2.80;;;13.70;99.90;;;;;;5045018;28;20268;-83
2023/08/09 06:56:39;;;;;;;4.63;2.40;;;13.80;99.90;;;;;;5044430;28;20281;-83
2023/08/09 06:59:07;;;;;;;10.35;3.20;;;13.90;99.90;;;;;;5026483;28;20186;-82
2023/08/09 07:01:34;;;;;;;9.05;2.90;;;13.90;99.90;;;;;;5013872;28;20195;-84
2023/08/09 07:04:02;;;;;;;7.35;2.80;;;14.00;99.90;;;;;;5018403;28;20760;-83
2023/08/09 07:06:30;;;;;;;13.18;4.15;;;14.00;99.90;;;;;;5025345;28;20193;-83
2023/08/09 07:08:59;;;;;;;5.90;2.85;;;14.10;99.90;;;;;;5023428;28;20201;-83
2023/08/09 07:11:26;;;;;;;8.32;2.67;;;14.20;99.90;;;;;;5024516;28;20193;-84
2023/08/09 07:13:54;;;;;;;4.78;2.40;;;14.30;99.90;;;;;;5023858;28;20273;-83
2023/08/09 07:16:22;;;;;;;6.85;2.50;;;14.40;99.90;;;;;;5024226;28;20236;-83
2023/08/09 07:18:50;;;;;;;4.78;2.15;;;14.50;99.90;;;;;;5024635;28;20190;-83
2023/08/09 07:21:17;;;;;;;8.07;1.98;;;14.60;99.90;;;;;;5023815;28;20555;-83
2023/08/09 07:23:45;;;;;;;6.45;2.40;;;14.60;99.90;;;;;;5025522;28;20279;-83
2023/08/09 07:26:25;;;;;;;4.30;2.10;;;14.60;99.90;;;;;;5025642;28;20274;-83
2023/08/09 07:28:52;;;;;;;8.65;2.60;;;14.70;99.90;;;;;;5008248;28;20284;-83
2023/08/09 07:31:22;;;;;;;4.07;2.10;;;14.70;99.90;;;;;;5008221;28;20297;-84
2023/08/09 07:33:50;;;;;;;5.97;2.22;;;14.80;99.90;;;;;;5024569;28;20198;-83
2023/08/09 07:36:18;;;;;;;3.85;1.88;;;14.80;99.90;;;;;;5025809;28;20212;-83
2023/08/09 07:38:46;;;;;;;4.20;1.83;;;15.00;99.90;;;;;;5025755;28;20194;-83
2023/08/09 07:41:14;;;;;;;4.72;2.00;;;15.00;99.90;;;;;;5025712;28;20276;-83
2023/08/09 07:43:41;;;;;;;5.72;2.38;;;15.10;99.90;;;;;;5011629;28;20186;-83
2023/08/09 07:46:10;;;;;;;3.47;2.00;;;15.10;99.90;;;;;;5028125;28;20216;-84
2023/08/09 07:48:41;;;;;;;5.05;2.00;;;15.10;99.90;;;;;;5026267;28;20202;-84
2023/08/09 07:51:11;;;;;;;2.80;1.80;;;15.10;99.90;;;;;;5026280;28;20198;-83
2023/08/09 07:53:40;;;;;;;3.55;1.67;;;15.30;99.90;;;;;;5026502;28;20194;-83
2023/08/09 07:56:12;;;;;;;4.93;2.10;;;15.30;99.90;;;;;;5027058;28;20668;-84
2023/08/09 07:58:40;;;;;;;3.42;1.45;;;15.50;99.90;;;;;;5029079;28;20179;-83
2023/08/09 08:01:08;;;;;;;4.03;1.70;;;15.60;99.90;;;;;;5029044;28;20182;-83
2023/08/09 08:03:35;;;;;;;3.17;1.30;;;15.50;99.90;;;;;;5011137;28;20221;-84
2023/08/09 08:06:03;;;;;;;3.05;1.70;;;15.60;99.90;;;;;;5028970;28;20190;-84
2023/08/09 08:08:31;;;;;;;3.15;1.58;;;15.70;99.90;;;;;;5028907;28;20269;-83
2023/08/09 08:10:58;;;;;;;2.75;1.70;;;15.70;99.90;;;;;;5028813;28;20269;-84
2023/08/09 08:13:26;;;;;;;3.67;2.33;;;15.80;99.90;;;;;;5028801;28;20193;-85
2023/08/09 08:15:53;;;;;;;4.20;1.50;;;15.80;99.90;;;;;;5019988;28;20207;-84
2023/08/09 08:18:21;;;;;;;4.47;1.60;;;16.00;99.90;;;;;;5009138;28;20271;-83
2023/08/09 08:20:49;;;;;;;3.45;2.10;;;15.90;99.90;;;;;;5008870;28;20243;-83
2023/08/09 08:23:17;;;;;;;3.13;1.73;;;15.80;99.90;;;;;;5008854;28;20242;-84
2023/08/09 08:25:45;;;;;;;8.20;1.73;;;15.70;99.90;;;;;;5008787;28;20232;-84
2023/08/09 08:28:12;;;;;;;3.78;1.63;;;15.70;99.90;;;;;;5007711;28;20727;-84
2023/08/09 08:30:40;;;;;;;5.60;1.50;;;15.80;99.90;;;;;;5008735;28;20190;-84
2023/08/09 08:33:08;;;;;;;4.65;1.95;;;15.80;99.90;;;;;;5009126;28;20206;-84
2023/08/09 08:35:43;;;;;;;2.10;1.42;;;16.00;99.90;;;;;;5008941;28;20190;-85
2023/08/09 08:38:11;;;;;;;5.85;1.70;;;16.10;99.90;;;;;;5009017;28;20596;-84
2023/08/09 08:40:38;;;;;;;4.05;1.80;;;16.30;99.90;;;;;;5023511;28;20194;-84
2023/08/09 08:43:08;;;;;;;6.60;2.10;;;16.60;99.90;;;;;;5008619;28;20179;-84
2023/08/09 08:45:40;;;;;;;5.20;1.83;;;16.50;99.90;;;;;;5008522;28;20262;-83
2023/08/09 08:48:10;;;;;;;6.13;1.73;;;16.60;99.90;;;;;;5023751;28;20267;-84
2023/08/09 08:50:39;;;;;;;3.85;1.88;;;16.60;99.90;;;;;;5007110;28;20282;-83
2023/08/09 08:53:08;;;;;;;6.63;1.95;;;16.50;99.90;;;;;;5008014;28;20190;-85
2023/08/09 08:55:36;;;;;;;5.07;1.73;;;16.70;99.90;;;;;;5009121;28;20183;-84
2023/08/09 08:58:03;;;;;;;2.92;1.52;;;16.90;99.90;;;;;;5008480;28;20207;-83
2023/08/09 09:00:31;;;;;;;4.80;1.50;;;16.80;99.90;;;;;;5007044;28;20182;-84
2023/08/09 09:03:00;;;;;;;3.58;1.80;;;16.70;99.90;;;;;;5023309;28;20224;-84
2023/08/09 09:05:28;;;;;;;4.53;1.70;;;16.70;99.90;;;;;;5006859;28;20273;-82
2023/08/09 09:07:58;;;;;;;4.38;1.65;;;16.60;99.90;;;;;;5006895;28;20190;-85
2023/08/09 09:10:26;;;;;;;3.30;1.67;;;16.50;99.90;;;;;;5008125;28;20175;-84
2023/08/09 09:12:55;;;;;;;3.40;1.80;;;16.70;99.90;;;;;;5006805;28;20244;-83
2023/08/09 09:15:25;;;;;;;4.40;1.70;;;16.90;99.90;;;;;;5006698;28;21009;-85
2023/08/09 09:17:52;;;;;;;3.22;1.70;;;17.20;99.90;;;;;;5006561;28;20220;-83
2023/08/09 09:20:27;;;;;;;3.33;1.80;;;17.00;99.90;;;;;;5008123;28;20194;-84
2023/08/09 09:22:55;;;;;;;3.00;1.70;;;17.10;99.90;;;;;;5006685;28;20226;-83
2023/08/09 09:25:23;;;;;;;2.60;1.40;;;17.10;99.90;;;;;;5008630;28;20187;-84
2023/08/09 09:28:00;;;;;;;6.82;1.52;;;17.20;99.90;;;;;;5006872;28;20193;-84
2023/08/09 09:30:31;;;;;;;4.45;1.70;;;17.20;99.90;;;;;;5006747;28;20186;-84
2023/08/09 09:33:03;;;;;;;2.83;1.30;;;17.20;99.90;;;;;;5007874;28;20190;-84
2023/08/09 09:35:32;;;;;;;3.13;1.50;;;17.00;99.90;;;;;;5006329;28;20195;-85
2023/08/09 09:38:03;;;;;;;5.95;1.52;;;16.90;99.90;;;;;;5006507;28;20642;-84
2023/08/09 09:40:33;;;;;;;3.20;1.85;;;17.10;99.90;;;;;;5007970;28;20217;-85
2023/08/09 09:43:04;;;;;;;5.47;1.60;;;17.30;99.90;;;;;;5006977;28;20172;-85
2023/08/09 09:45:33;;;;;;;3.38;1.67;;;17.40;99.90;;;;;;5007771;28;20173;-85
2023/08/09 09:48:04;;;;;;;4.60;2.05;;;17.20;99.90;;;;;;5006239;28;20726;-84
2023/08/09 09:50:33;;;;;;;4.97;1.65;;;17.20;99.90;;;;;;5007624;28;20179;-84
2023/08/09 09:53:02;;;;;;;4.13;2.22;;;17.10;99.90;;;;;;5006054;28;20191;-84
2023/08/09 09:55:31;;;;;;;3.75;1.85;;;16.90;99.90;;;;;;5006251;28;20838;-84
2023/08/09 09:57:59;;;;;;;4.60;1.75;;;16.90;99.90;;;;;;5006325;28;20623;-84
2023/08/09 10:00:27;;;;;;;3.55;1.75;;;16.80;99.90;;;;;;5007612;28;20261;-84
2023/08/09 10:02:57;;;;;;;5.47;1.92;;;17.00;99.90;;;;;;5008005;28;20204;-84
2023/08/09 10:05:37;;;;;;;6.70;1.80;;;17.30;99.90;;;;;;5007780;28;20278;-85
2023/08/09 10:08:10;;;;;;;5.70;1.80;;;17.70;99.90;;;;;;4989907;28;20191;-84
2023/08/09 10:10:43;;;;;;;2.78;1.52;;;17.90;99.90;;;;;;5006083;28;20170;-84
2023/08/09 10:13:16;;;;;;;5.75;1.77;;;17.60;99.90;;;;;;4990320;28;20626;-85
2023/08/09 10:15:48;;;;;;;3.80;1.95;;;17.40;99.90;;;;;;5005979;28;20264;-85
2023/08/09 10:18:23;;;;;;;3.65;1.52;;;17.40;99.90;;;;;;5022147;28;20175;-85
2023/08/09 10:20:55;;;;;;;3.92;1.50;;;17.40;99.90;;;;;;5005923;28;20193;-84
2023/08/09 10:23:25;;;;;;;6.18;1.90;;;17.50;99.90;;;;;;5006603;28;20225;-84
2023/08/09 10:25:55;;;;;;;3.08;1.60;;;17.70;99.90;;;;;;5007832;28;20183;-84
2023/08/09 10:29:00;;;;;;;7.00;1.58;;;17.80;99.90;;;;;;4989577;28;20289;-84
2023/08/09 10:31:57;;;;;;;2.95;1.55;;;17.80;99.90;;;;;;5002672;28;20282;-85
2023/08/09 10:34:40;;;;;;;3.00;1.75;;;17.80;99.90;;;;;;5007169;28;20167;-84
2023/08/09 10:37:21;;;;;;;3.42;1.92;;;17.70;99.90;;;;;;5005393;28;20650;-85
2023/08/09 10:40:15;;;;;;;3.72;1.70;;;17.90;99.90;;;;;;5006987;28;20712;-84
2023/08/09 10:42:47;;;;;;;3.97;1.65;;;18.00;99.90;;;;;;5005545;28;20239;-85
2023/08/09 10:45:15;;;;;;;5.07;2.10;;;17.90;99.90;;;;;;4990283;28;20191;-85
2023/08/09 10:47:43;;;;;;;2.97;1.63;;;17.90;99.90;;;;;;5022118;28;20187;-84
2023/08/09 10:50:15;;;;;;;5.47;1.67;;;17.90;99.90;;;;;;4989500;28;20564;-85
2023/08/09 10:52:51;;;;;;;3.70;1.70;;;18.00;99.90;;;;;;5005353;28;20680;-84
2023/08/09 10:55:19;;;;;;;3.28;1.80;;;18.10;99.90;;;;;;5006950;28;20247;-84
2023/08/09 10:57:49;;;;;;;3.03;1.80;;;17.90;99.90;;;;;;5006803;28;20306;-84
2023/08/09 11:00:20;;;;;;;7.07;2.10;;;17.80;99.90;;;;;;5006673;28;20163;-84
2023/08/09 11:02:53;;;;;;;3.08;1.60;;;17.90;99.90;;;;;;5006648;28;20175;-84
2023/08/09 11:05:22;;;;;;;8.90;1.85;;;17.80;99.90;;;;;;5006670;28;20183;-84
2023/08/09 11:07:53;;;;;;;3.95;1.60;;;17.80;99.90;;;;;;5005473;28;20183;-85
2023/08/09 11:10:37;;;;;;;7.22;2.05;;;17.80;99.90;;;;;;5009530;28;20171;-84
2023/08/09 11:13:16;;;;;;;4.85;1.83;;;17.70;99.90;;;;;;5005317;28;20167;-84
2023/08/09 11:15:48;;;;;;;4.32;1.40;;;17.60;99.90;;;;;;5005951;28;20282;-83
2023/08/09 11:18:16;;;;;;;5.75;2.00;;;17.60;99.90;;;;;;5008590;28;20191;-84
2023/08/09 11:20:44;;;;;;;4.05;1.70;;;17.50;99.90;;;;;;5010367;28;20182;-84
2023/08/09 11:23:13;;;;;;;6.10;2.00;;;17.50;99.90;;;;;;5020928;28;20675;-84
2023/08/09 11:25:42;;;;;;;6.80;1.70;;;17.40;99.90;;;;;;5028209;28;20186;-85
2023/08/09 11:28:14;;;;;;;8.30;2.15;;;17.40;99.90;;;;;;5024616;28;20206;-83
2023/08/09 11:30:42;;;;;;;5.15;1.88;;;16.90;99.90;;;;;;5028563;28;20688;-83
2023/08/09 11:33:11;;;;;;;4.18;2.05;;;16.30;99.90;;;;;;5027593;28;20265;-87
2023/08/09 11:35:44;;;;;;;3.13;1.50;;;15.70;99.90;;;;;;5019783;28;20191;-85
2023/08/09 11:38:16;;;;;;;3.60;1.70;;;15.50;99.90;;;;;;5015891;28;20201;-84
2023/08/09 11:40:46;;;;;;;4.20;1.80;;;15.30;99.90;;;;;;5019288;28;20179;-83
2023/08/09 11:43:18;;;;;;;3.33;1.52;;;15.40;99.90;;;;;;5001454;28;20208;-83
2023/08/09 11:45:53;;;;;;;3.88;1.60;;;15.50;99.90;;;;;;5028592;28;20205;-83
2023/08/09 11:48:41;;;;;;;2.80;1.63;;;15.60;99.90;;;;;;5026635;28;20193;-82
2023/08/09 11:51:19;;;;;;;3.05;1.55;;;15.20;99.90;;;;;;5029744;28;20193;-82
2023/08/09 11:54:10;;;;;;;4.80;1.80;;;15.40;99.90;;;;;;5034464;28;20189;-85
2023/08/09 11:56:41;;;;;;;4.10;1.52;;;15.50;99.90;;;;;;5035646;28;20213;-85
2023/08/09 11:59:11;;;;;;;5.95;2.15;;;15.40;99.90;;;;;;5023188;28;20178;-86
2023/08/09 12:01:44;;;;;;;3.80;1.67;;;15.40;99.90;;;;;;5035829;28;20682;-86
2023/08/09 12:04:20;;;;;;;4.30;1.80;;;15.30;99.90;;;;;;5019203;28;20206;-85
2023/08/09 12:06:58;;;;;;;4.70;2.17;;;15.30;99.90;;;;;;5043284;28;20816;-84
2023/08/09 12:09:39;;;;;;;2.83;1.70;;;15.10;99.90;;;;;;5027320;28;20193;-86
2023/08/09 12:12:12;;;;;;;4.55;2.10;;;15.00;99.90;;;;;;5036916;28;20197;-84
2023/08/09 12:14:49;;;;;;;4.97;1.80;;;14.90;99.90;;;;;;5031647;28;20194;-85
2023/08/09 12:17:27;;;;;;;3.78;2.00;;;14.90;99.90;;;;;;5029168;28;20255;-86
2023/08/09 12:19:57;;;;;;;3.83;2.20;;;15.00;99.90;;;;;;5030939;28;20193;-85
2023/08/09 12:22:26;;;;;;;4.40;1.92;;;15.00;99.90;;;;;;5037591;28;20226;-83
2023/08/09 12:24:56;;;;;;;4.10;2.10;;;14.90;99.90;;;;;;5032134;28;20194;-84
2023/08/09 12:27:27;;;;;;;3.65;2.42;;;15.10;99.90;;;;;;5027095;28;20190;-85
2023/08/09 12:29:56;;;;;;;3.15;2.08;;;15.30;99.90;;;;;;5038233;28;20198;-84
2023/08/09 12:32:42;;;;;;;4.60;2.00;;;15.40;99.90;;;;;;5033136;28;20177;-85
2023/08/09 12:35:19;;;;;;;2.90;1.85;;;15.60;99.90;;;;;;5037752;28;20755;-85
2023/08/09 12:37:49;;;;;;;4.80;2.22;;;15.80;99.90;;;;;;5026321;28;20204;-83
2023/08/09 12:40:17;;;;;;;6.07;2.28;;;15.80;99.90;;;;;;5032128;28;20223;-84
2023/08/09 12:42:46;;;;;;;7.20;1.90;;;15.80;99.90;;;;;;5031714;28;20210;-84
2023/08/09 12:45:15;;;;;;;4.85;2.08;;;15.80;99.90;;;;;;5042360;28;20187;-84
2023/08/09 12:47:48;;;;;;;5.32;2.65;;;15.80;99.90;;;;;;5021217;28;20234;-86
2023/08/09 12:50:22;;;;;;;3.08;2.03;;;15.80;99.90;;;;;;5009312;28;20284;-85
2023/08/09 12:52:59;;;;;;;5.32;2.42;;;15.80;99.90;;;;;;5023602;28;20286;-85
2023/08/09 12:55:38;;;;;;;4.55;2.55;;;15.90;99.90;;;;;;5026174;28;20186;-85
2023/08/09 12:58:15;;;;;;;5.03;2.58;;;16.00;99.90;;;;;;5025703;28;20216;-85